Time;durP1;ratioP1;P1;durP2;ratioP2;P2;SDS_P1;SDS_P2;PMS_P1;PMS_P2;Temp;Humidity;BMP_temperature;BMP_pressure;BME280_temperature;BME280_humidity;BME280_pressure;Samples;Min_cycle;Max_cycle;Signal;HPM_P1;HPM_P2
2023/08/10 00:00:18;;;;;;;7.90;4.70;;;;;;;14.16;100.00;100068.98;105914;1253;61356;-73
2023/08/10 00:02:45;;;;;;;10.60;5.00;;;;;;;14.15;100.00;100068.70;105922;1253;71253;-73
2023/08/10 00:05:12;;;;;;;7.20;4.50;;;;;;;14.11;100.00;100067.05;105909;1253;72486;-74
2023/08/10 00:07:39;;;;;;;8.40;5.00;;;;;;;14.09;100.00;100064.65;105939;1253;61356;-74
2023/08/10 00:10:08;;;;;;;7.30;4.80;;;;;;;14.06;100.00;100059.64;105949;1253;61324;-75
2023/08/10 00:12:38;;;;;;;6.60;4.70;;;;;;;14.03;100.00;100057.70;105982;1254;74659;-74
2023/08/10 00:15:06;;;;;;;9.80;5.30;;;;;;;14.00;100.00;100057.98;105187;1251;1003799;-74
2023/08/10 00:17:33;;;;;;;7.10;4.70;;;;;;;13.97;100.00;100058.27;105992;1249;70746;-75
2023/08/10 00:20:00;;;;;;;8.70;4.90;;;;;;;13.95;100.00;100062.42;105932;1251;61278;-74
2023/08/10 00:22:27;;;;;;;6.50;4.80;;;;;;;13.93;100.00;100065.12;105991;1253;61333;-73
2023/08/10 00:24:54;;;;;;;9.10;4.80;;;;;;;13.92;100.00;100065.88;105912;1253;74558;-72
2023/08/10 00:27:20;;;;;;;9.50;4.80;;;;;;;13.89;100.00;100065.11;105923;1255;70902;-74
2023/08/10 00:29:47;;;;;;;9.00;5.30;;;;;;;13.87;100.00;100068.19;105915;1255;72437;-74
2023/08/10 00:32:15;;;;;;;8.90;4.50;;;;;;;13.83;100.00;100067.47;105901;1263;61163;-74
2023/08/10 00:34:42;;;;;;;7.50;4.50;;;;;;;13.80;100.00;100071.30;105983;1251;61344;-75
2023/08/10 00:37:11;;;;;;;5.30;4.20;;;;;;;13.78;100.00;100075.08;105928;1256;73271;-73
2023/08/10 00:39:37;;;;;;;13.30;5.10;;;;;;;13.77;100.00;100073.89;105944;1253;70940;-72
2023/08/10 00:42:04;;;;;;;9.20;5.00;;;;;;;13.74;100.00;100072.22;105882;1251;61218;-74
2023/08/10 00:44:32;;;;;;;7.80;4.90;;;;;;;13.72;100.00;100070.36;105984;1253;61362;-74
2023/08/10 00:46:59;;;;;;;8.60;5.30;;;;;;;13.71;100.00;100076.40;105761;1257;61237;-75
2023/08/10 00:49:26;;;;;;;7.70;4.70;;;;;;;13.69;100.00;100073.64;105804;1257;73468;-74
2023/08/10 00:51:53;;;;;;;6.90;4.50;;;;;;;13.67;100.00;100077.25;105929;1253;69533;-74
2023/08/10 00:54:20;;;;;;;5.30;4.60;;;;;;;13.64;100.00;100074.55;105888;1251;72658;-74
2023/08/10 00:56:46;;;;;;;4.50;3.90;;;;;;;13.60;100.00;100077.52;105986;1251;61242;-74
2023/08/10 00:59:13;;;;;;;9.30;5.00;;;;;;;13.58;100.00;100079.54;105813;1257;61240;-73
2023/08/10 01:01:39;;;;;;;5.20;4.30;;;;;;;13.55;100.00;100081.92;105949;1253;61323;-72
2023/08/10 01:04:06;;;;;;;8.30;4.10;;;;;;;13.54;100.00;100087.79;105924;1251;71188;-74
2023/08/10 01:06:39;;;;;;;8.60;4.50;;;;;;;13.54;100.00;100086.75;105902;1253;73007;-74
2023/08/10 01:09:38;;;;;;;6.40;4.00;;;;;;;13.53;100.00;100086.08;105936;1252;61276;-74
2023/08/10 01:12:53;;;;;;;6.20;4.30;;;;;;;13.48;100.00;100087.83;105623;1251;61345;-73
2023/08/10 01:15:22;;;;;;;8.30;4.50;;;;;;;13.44;100.00;100091.69;105843;1255;74801;-72
2023/08/10 01:17:56;;;;;;;6.80;3.80;;;;;;;13.42;100.00;100095.48;106001;1255;71210;-75
2023/08/10 01:20:23;;;;;;;4.70;3.60;;;;;;;13.42;100.00;100095.30;105982;1256;72555;-73
2023/08/10 01:22:53;;;;;;;5.40;3.80;;;;;;;13.41;100.00;100093.95;105999;1260;61248;-73
2023/08/10 01:25:21;;;;;;;7.10;4.10;;;;;;;13.38;100.00;100090.66;104453;1251;1003321;-74
2023/08/10 01:27:48;;;;;;;6.20;3.90;;;;;;;13.36;100.00;100091.45;105976;1253;74676;-73
2023/08/10 01:30:15;;;;;;;4.50;3.80;;;;;;;13.34;100.00;100093.27;105925;1254;70799;-73
2023/08/10 01:32:42;;;;;;;5.60;3.80;;;;;;;13.34;100.00;100094.86;105801;1256;71520;-73
2023/08/10 01:35:10;;;;;;;4.10;3.40;;;;;;;13.34;100.00;100094.52;105948;1253;61355;-73
2023/08/10 01:37:37;;;;;;;6.30;4.20;;;;;;;13.33;100.00;100095.10;105956;1254;61234;-72
2023/08/10 01:40:08;;;;;;;7.60;4.10;;;;;;;13.31;100.00;100097.96;105845;1257;74460;-73
2023/08/10 01:42:35;;;;;;;5.70;4.20;;;;;;;13.28;100.00;100097.17;106008;1250;71187;-74
2023/08/10 01:45:04;;;;;;;5.00;4.10;;;;;;;13.27;100.00;100099.32;105974;1251;72596;-74
2023/08/10 01:47:39;;;;;;;7.90;4.20;;;;;;;13.26;100.00;100098.31;105876;1264;61339;-73
2023/08/10 01:50:07;;;;;;;5.40;3.90;;;;;;;13.25;100.00;100108.73;106001;1251;61262;-74
2023/08/10 01:52:37;;;;;;;8.10;4.00;;;;;;;13.24;100.00;100116.71;106052;1253;74367;-76
2023/08/10 01:55:07;;;;;;;5.70;3.80;;;;;;;13.23;100.00;100114.61;105976;1253;69873;-74
2023/08/10 01:57:34;;;;;;;4.60;3.70;;;;;;;13.24;100.00;100117.42;105921;1253;72402;-75
2023/08/10 02:00:01;;;;;;;6.60;3.70;;;;;;;13.23;100.00;100117.29;105788;1257;61286;-75
2023/08/10 02:02:29;;;;;;;6.30;3.80;;;;;;;13.21;100.00;100116.09;105808;1257;61307;-74
2023/08/10 02:04:56;;;;;;;8.40;4.00;;;;;;;13.17;100.00;100113.79;105926;1251;74625;-73
2023/08/10 02:07:22;;;;;;;3.80;3.50;;;;;;;13.14;100.00;100110.54;105924;1254;61302;-74
2023/08/10 02:09:49;;;;;;;7.20;3.90;;;;;;;13.13;100.00;100111.27;105940;1252;71727;-74
2023/08/10 02:12:16;;;;;;;6.40;4.00;;;;;;;13.13;100.00;100114.64;105833;1254;61333;-74
2023/08/10 02:14:43;;;;;;;4.60;3.70;;;;;;;13.11;100.00;100117.18;105870;1251;61353;-73
2023/08/10 02:17:13;;;;;;;5.20;3.70;;;;;;;13.09;100.00;100115.31;105916;1254;74503;-74
2023/08/10 02:19:40;;;;;;;5.40;3.80;;;;;;;13.07;100.00;100111.85;105935;1254;69697;-73
2023/08/10 02:22:07;;;;;;;5.20;4.20;;;;;;;13.06;100.00;100118.57;105895;1251;72556;-73
2023/08/10 02:24:34;;;;;;;6.00;3.80;;;;;;;13.05;100.00;100126.35;105934;1251;61260;-73
2023/08/10 02:27:02;;;;;;;4.80;3.90;;;;;;;13.02;100.00;100126.45;105964;1251;61240;-73
2023/08/10 02:29:29;;;;;;;4.60;3.70;;;;;;;13.01;100.00;100131.60;105953;1251;74362;-75
2023/08/10 02:31:56;;;;;;;4.70;3.40;;;;;;;13.01;100.00;100134.41;105908;1253;70908;-73
2023/08/10 02:34:23;;;;;;;4.60;3.40;;;;;;;13.01;100.00;100140.23;106066;1251;72650;-73
2023/08/10 02:36:49;;;;;;;4.30;3.40;;;;;;;12.99;100.00;100141.52;105939;1251;61294;-74
2023/08/10 02:39:17;;;;;;;5.30;3.40;;;;;;;12.98;100.00;100141.73;105942;1251;61336;-73
2023/08/10 02:41:44;;;;;;;4.40;3.50;;;;;;;12.96;100.00;100136.17;105946;1251;72669;-73
2023/08/10 02:44:11;;;;;;;4.20;3.80;;;;;;;12.95;100.00;100141.65;105837;1255;71137;-74
2023/08/10 02:46:38;;;;;;;5.00;3.20;;;;;;;12.96;100.00;100138.10;106002;1253;72624;-73
2023/08/10 02:49:05;;;;;;;4.50;3.70;;;;;;;12.97;100.00;100142.12;105913;1250;61458;-73
2023/08/10 02:51:33;;;;;;;8.90;3.70;;;;;;;12.96;100.00;100144.81;105981;1251;61232;-74
2023/08/10 02:54:00;;;;;;;4.60;3.60;;;;;;;12.94;100.00;100146.09;105949;1253;74538;-73
2023/08/10 02:56:26;;;;;;;3.50;3.20;;;;;;;12.94;100.00;100147.33;105907;1251;70078;-74
2023/08/10 02:58:53;;;;;;;4.90;3.60;;;;;;;12.94;100.00;100150.16;105831;1254;72641;-73
2023/08/10 03:01:21;;;;;;;7.00;3.40;;;;;;;12.94;100.00;100150.85;105931;1251;61425;-74
2023/08/10 03:03:48;;;;;;;4.90;3.60;;;;;;;12.94;100.00;100152.77;105910;1251;61350;-75
2023/08/10 03:06:15;;;;;;;5.40;3.80;;;;;;;12.94;100.00;100147.84;105948;1253;73419;-73
2023/08/10 03:08:41;;;;;;;10.40;3.90;;;;;;;12.94;100.00;100152.78;105810;1251;70911;-73
2023/08/10 03:11:08;;;;;;;6.50;2.90;;;;;;;12.95;100.00;100154.69;105834;1253;72528;-74
2023/08/10 03:13:35;;;;;;;5.60;3.20;;;;;;;12.97;100.00;100162.56;105975;1251;61266;-73
2023/08/10 03:16:02;;;;;;;4.90;3.60;;;;;;;12.97;100.00;100159.72;105862;1254;61164;-74
2023/08/10 03:18:30;;;;;;;5.00;3.80;;;;;;;12.97;100.00;100170.27;105937;1253;74520;-74
2023/08/10 03:20:56;;;;;;;5.80;3.40;;;;;;;13.00;100.00;100172.85;105871;1256;61233;-73
2023/08/10 03:23:23;;;;;;;7.70;3.70;;;;;;;13.01;100.00;100173.48;105947;1253;72497;-72
2023/08/10 03:25:49;;;;;;;3.40;3.10;;;;;;;13.03;100.00;100171.52;105944;1253;61275;-74
2023/08/10 03:28:17;;;;;;;5.90;3.80;;;;;;;13.05;100.00;100175.16;105949;1254;61345;-74
2023/08/10 03:30:44;;;;;;;4.10;3.20;;;;;;;13.07;100.00;100172.77;105973;1251;74494;-74
2023/08/10 03:33:11;;;;;;;4.70;3.60;;;;;;;13.10;100.00;100174.61;105800;1257;71233;-73
2023/08/10 03:35:38;;;;;;;4.30;3.80;;;;;;;13.14;100.00;100172.54;105946;1251;72402;-73
2023/08/10 03:38:05;;;;;;;5.90;3.90;;;;;;;13.19;100.00;100169.71;105931;1253;61279;-73
2023/08/10 03:40:32;;;;;;;4.00;3.50;;;;;;;13.26;100.00;100169.66;105987;1251;61254;-73
2023/08/10 03:42:59;;;;;;;4.40;3.10;;;;;;;13.30;100.00;100167.40;105962;1251;74444;-74
2023/08/10 03:45:25;;;;;;;4.30;3.00;;;;;;;13.37;100.00;100173.00;106023;1251;69926;-75
2023/08/10 03:47:52;;;;;;;4.20;3.40;;;;;;;13.43;100.00;100175.63;105919;1251;61237;-73
2023/08/10 03:50:19;;;;;;;8.00;4.30;;;;;;;13.49;100.00;100178.58;105776;1250;61341;-73
2023/08/10 03:52:46;;;;;;;9.30;4.50;;;;;;;13.57;100.00;100184.45;106038;1251;61407;-74
2023/08/10 03:55:14;;;;;;;7.80;4.40;;;;;;;13.68;100.00;100188.65;105980;1251;72529;-74
2023/08/10 03:57:41;;;;;;;6.50;4.60;;;;;;;13.77;100.00;100183.89;106034;1254;70809;-75
2023/08/10 04:00:10;;;;;;;8.10;4.30;;;;;;;13.86;100.00;100185.17;106034;1250;72442;-75
2023/08/10 04:02:44;;;;;;;;;;;;;;;13.93;100.00;100186.13;105929;1250;61605;-74
2023/08/10 04:05:10;;;;;;;8.40;4.20;;;;;;;14.00;100.00;100185.35;105783;1257;61303;-74
2023/08/10 04:07:37;;;;;;;7.10;4.30;;;;;;;14.07;100.00;100185.20;105955;1250;74446;-73
2023/08/10 04:10:08;;;;;;;4.40;4.00;;;;;;;14.17;100.00;100185.92;105948;1251;69701;-74
2023/08/10 04:12:34;;;;;;;7.30;4.10;;;;;;;14.26;100.00;100187.85;105931;1251;72588;-74
2023/08/10 04:15:02;;;;;;;8.10;4.60;;;;;;;14.36;100.00;100187.11;105953;1255;61240;-73
2023/08/10 04:17:29;;;;;;;5.40;4.00;;;;;;;14.47;100.00;100190.56;105773;1257;61176;-73
2023/08/10 04:19:56;;;;;;;10.80;4.50;;;;;;;14.60;100.00;100196.96;105964;1253;74573;-74
2023/08/10 04:22:23;;;;;;;6.00;4.60;;;;;;;14.71;100.00;100196.02;105850;1254;71014;-73
2023/08/10 04:24:51;;;;;;;11.20;4.90;;;;;;;14.82;100.00;100196.05;105936;1251;72537;-75
2023/08/10 04:27:18;;;;;;;8.00;4.80;;;;;;;14.95;100.00;100200.67;105960;1251;61322;-74
2023/08/10 04:29:45;;;;;;;11.10;4.90;;;;;;;15.07;100.00;100199.09;106018;1254;61160;-74
2023/08/10 04:32:12;;;;;;;9.00;4.70;;;;;;;15.20;100.00;100206.15;105921;1253;74676;-74
2023/08/10 04:34:39;;;;;;;5.90;4.70;;;;;;;15.32;100.00;100200.69;105968;1251;71007;-73
2023/08/10 04:37:06;;;;;;;6.10;4.60;;;;;;;15.44;100.00;100207.77;105914;1254;72905;-74
2023/08/10 04:39:33;;;;;;;9.90;4.90;;;;;;;15.56;100.00;100207.74;105956;1251;61743;-74
2023/08/10 04:41:59;;;;;;;11.00;4.50;;;;;;;15.70;100.00;100206.27;105910;1251;61704;-75
2023/08/10 04:44:26;;;;;;;7.40;4.80;;;;;;;15.82;100.00;100205.24;105938;1251;61378;-75
2023/08/10 04:46:52;;;;;;;9.80;5.30;;;;;;;15.93;100.00;100203.84;105916;1253;61490;-75
2023/08/10 04:49:19;;;;;;;7.10;4.80;;;;;;;16.06;100.00;100203.61;106045;1253;71708;-74
2023/08/10 04:51:46;;;;;;;14.80;4.30;;;;;;;16.19;100.00;100201.95;106006;1251;61252;-77
2023/08/10 04:54:13;;;;;;;13.00;4.60;;;;;;;16.32;100.00;100200.46;105990;1251;61275;-74
2023/08/10 04:56:40;;;;;;;7.60;4.30;;;;;;;16.44;100.00;100197.95;105956;1251;74374;-74
2023/08/10 04:59:07;;;;;;;8.00;3.80;;;;;;;16.56;100.00;100200.53;105922;1254;69651;-73
2023/08/10 05:01:33;;;;;;;9.30;3.80;;;;;;;16.68;100.00;100199.77;105956;1249;61253;-75
2023/08/10 05:04:00;;;;;;;5.30;3.50;;;;;;;16.82;100.00;100195.05;106000;1250;61750;-75
2023/08/10 05:06:27;;;;;;;7.10;3.60;;;;;;;16.96;100.00;100189.40;106013;1250;61163;-75
2023/08/10 05:08:54;;;;;;;11.70;3.30;;;;;;;17.09;100.00;100189.30;105994;1250;74687;-74
2023/08/10 05:11:21;;;;;;;7.60;3.40;;;;;;;17.21;100.00;100185.83;105973;1253;69654;-74
2023/08/10 05:13:47;;;;;;;5.20;3.10;;;;;;;17.31;100.00;100178.60;105946;1251;71486;-74
2023/08/10 05:16:15;;;;;;;8.90;3.40;;;;;;;17.38;100.00;100165.64;105956;1251;61261;-75
2023/08/10 05:18:41;;;;;;;5.60;2.60;;;;;;;17.45;100.00;100161.19;105928;1252;61385;-74
2023/08/10 05:21:08;;;;;;;15.20;3.10;;;;;;;17.53;100.00;100159.18;105974;1251;73466;-75
2023/08/10 05:23:37;;;;;;;8.40;2.60;;;;;;;17.60;100.00;100157.36;105952;1251;70802;-74
2023/08/10 05:26:04;;;;;;;4.00;2.10;;;;;;;17.68;100.00;100152.70;106002;1253;71135;-75
2023/08/10 05:28:31;;;;;;;5.60;2.00;;;;;;;17.73;100.00;100146.70;106010;1251;61352;-75
2023/08/10 05:30:58;;;;;;;4.50;2.20;;;;;;;17.79;100.00;100139.13;105960;1251;61362;-74
2023/08/10 05:33:24;;;;;;;4.00;2.50;;;;;;;17.85;100.00;100137.40;105962;1250;75118;-75
2023/08/10 05:35:51;;;;;;;4.50;2.10;;;;;;;17.91;100.00;100140.47;105954;1253;69179;-75
2023/08/10 05:38:18;;;;;;;5.30;2.10;;;;;;;17.97;100.00;100139.96;105945;1251;72769;-75
2023/08/10 05:40:45;;;;;;;10.80;2.70;;;;;;;18.03;100.00;100135.88;106016;1250;61390;-75
2023/08/10 05:43:11;;;;;;;2.70;1.90;;;;;;;18.09;100.00;100132.92;105994;1253;61356;-75
2023/08/10 05:45:41;;;;;;;8.90;2.00;;;;;;;18.14;100.00;100129.61;105960;1251;74478;-75
2023/08/10 05:48:11;;;;;;;7.40;2.30;;;;;;;18.17;100.00;100127.80;105937;1250;70872;-75
2023/08/10 05:50:38;;;;;;;3.50;2.10;;;;;;;18.22;100.00;100124.17;105958;1253;72917;-74
2023/08/10 05:53:06;;;;;;;6.40;2.10;;;;;;;18.27;100.00;100125.55;105945;1250;61349;-74
2023/08/10 05:55:33;;;;;;;2.90;2.00;;;;;;;18.31;100.00;100128.30;106066;1251;61347;-75
2023/08/10 05:58:00;;;;;;;2.60;2.00;;;;;;;18.35;100.00;100128.23;105966;1253;73603;-74
2023/08/10 06:00:27;;;;;;;7.40;1.90;;;;;;;18.40;100.00;100127.94;105912;1251;71185;-75
2023/08/10 06:02:54;;;;;;;8.20;2.30;;;;;;;18.48;100.00;100134.08;105927;1251;72450;-75
2023/08/10 06:05:22;;;;;;;5.50;2.10;;;;;;;18.55;100.00;100133.65;106035;1251;61374;-75
2023/08/10 06:07:48;;;;;;;8.20;2.50;;;;;;;18.64;100.00;100134.92;105964;1251;61807;-74
2023/08/10 06:10:16;;;;;;;5.10;2.00;;;;;;;18.71;100.00;100135.03;105953;1253;74559;-75
2023/08/10 06:12:43;;;;;;;12.10;4.10;;;;;;;18.79;100.00;100134.40;106017;1251;70889;-74
2023/08/10 06:15:10;;;;;;;8.20;3.20;;;;;;;18.88;100.00;100138.19;105936;1250;72494;-75
2023/08/10 06:17:40;;;;;;;8.50;2.60;;;;;;;18.96;100.00;100134.50;105917;1250;61269;-76
2023/08/10 06:20:11;;;;;;;10.10;4.30;;;;;;;19.05;100.00;100135.41;105983;1250;61259;-77
2023/08/10 06:22:39;;;;;;;9.70;3.00;;;;;;;19.13;100.00;100131.34;105967;1251;74843;-74
2023/08/10 06:25:06;;;;;;;10.60;2.50;;;;;;;19.22;100.00;100131.34;105967;1250;70875;-75
2023/08/10 06:27:34;;;;;;;4.90;1.90;;;;;;;19.31;100.00;100128.31;106007;1251;72672;-74
2023/08/10 06:30:01;;;;;;;10.20;2.70;;;;;;;19.39;100.00;100123.00;106101;1251;61359;-74
2023/08/10 06:32:27;;;;;;;8.60;2.00;;;;;;;19.48;100.00;100119.96;105958;1251;61164;-76
2023/08/10 06:34:54;;;;;;;9.20;1.90;;;;;;;19.56;100.00;100118.77;105997;1249;74699;-75
2023/08/10 06:37:21;;;;;;;9.40;3.90;;;;;;;19.65;100.00;100118.94;105946;1251;70915;-75
2023/08/10 06:39:48;;;;;;;14.00;4.50;;;;;;;19.74;100.00;100115.01;105959;1249;72324;-74
2023/08/10 06:42:17;;;;;;;19.10;10.80;;;;;;;19.85;100.00;100115.06;105961;1253;61291;-75
2023/08/10 06:44:45;;;;;;;8.10;4.50;;;;;;;19.95;100.00;100115.84;106119;1253;61256;-74
2023/08/10 06:47:12;;;;;;;14.20;8.80;;;;;;;20.04;100.00;100111.85;106035;1250;74522;-75
2023/08/10 06:49:38;;;;;;;7.30;3.90;;;;;;;20.12;100.00;100109.90;105957;1251;61852;-75
2023/08/10 06:52:05;;;;;;;3.40;2.30;;;;;;;20.19;100.00;100108.72;105929;1251;61353;-75
2023/08/10 06:54:32;;;;;;;3.40;1.80;;;;;;;20.27;100.00;100106.59;106044;1252;61335;-75
2023/08/10 06:57:00;;;;;;;4.00;1.50;;;;;;;20.34;100.00;100103.65;105928;1253;61346;-75
2023/08/10 06:59:28;;;;;;;7.60;1.60;;;;;;;20.42;100.00;100102.44;105960;1253;74705;-74
2023/08/10 07:02:16;;;;;;;3.10;1.50;;;;;;;20.52;100.00;100105.55;105963;1251;71199;-74
2023/08/10 07:04:45;;;;;;;2.00;1.70;;;;;;;20.60;100.00;100104.08;105957;1253;72746;-75
2023/08/10 07:07:14;;;;;;;4.30;2.00;;;;;;;20.70;100.00;100106.31;106035;1251;61353;-76
2023/08/10 07:09:42;;;;;;;9.80;2.10;;;;;;;20.80;100.00;100104.42;106032;1253;61359;-74
2023/08/10 07:12:09;;;;;;;5.40;2.00;;;;;;;20.88;100.00;100102.82;105940;1251;74341;-75
2023/08/10 07:14:36;;;;;;;4.30;2.60;;;;;;;20.95;100.00;100097.15;106057;1250;71146;-75
2023/08/10 07:17:03;;;;;;;3.40;2.00;;;;;;;21.02;100.00;100095.92;106090;1251;72423;-75
2023/08/10 07:19:30;;;;;;;2.30;1.70;;;;;;;21.10;100.00;100097.89;105924;1253;61291;-74
2023/08/10 07:21:57;;;;;;;9.60;2.90;;;;;;;21.16;100.00;100097.80;105918;1251;61343;-74
2023/08/10 07:24:24;;;;;;;3.00;2.00;;;;;;;21.24;100.00;100093.91;105933;1250;73494;-75
2023/08/10 07:26:56;;;;;;;7.20;2.10;;;;;;;21.32;100.00;100092.46;106080;1253;69250;-75
2023/08/10 07:29:23;;;;;;;3.40;1.60;;;;;;;21.42;100.00;100090.49;105912;1251;71551;-75
2023/08/10 07:31:51;;;;;;;5.10;1.60;;;;;;;21.53;100.00;100093.31;105736;1251;61208;-75
2023/08/10 07:34:18;;;;;;;7.50;1.70;;;;;;;21.63;100.00;100090.86;106042;1253;61330;-75
2023/08/10 07:36:45;;;;;;;7.40;2.00;;;;;;;21.72;100.00;100096.59;105939;1253;74432;-75
2023/08/10 07:39:13;;;;;;;4.90;2.00;;;;;;;21.83;100.00;100092.19;105927;1250;71172;-75
2023/08/10 07:41:40;;;;;;;2.10;1.90;;;;;;;21.95;100.00;100094.05;105926;1254;72392;-76
2023/08/10 07:44:07;;;;;;;7.90;2.10;;;;;;;22.06;100.00;100094.98;106000;1250;61290;-75
2023/08/10 07:46:34;;;;;;;4.00;1.80;;;;;;;22.14;100.00;100092.63;105909;1253;61160;-75
2023/08/10 07:49:00;;;;;;;2.20;1.40;;;;;;;22.18;100.00;100093.04;105961;1251;73253;-75
2023/08/10 07:51:27;;;;;;;9.60;1.80;;;;;;;22.22;100.00;100091.19;105981;1251;70998;-74
2023/08/10 07:53:54;;;;;;;5.80;1.70;;;;;;;22.24;100.00;100091.37;105933;1249;71452;-72
2023/08/10 07:56:20;;;;;;;3.10;1.50;;;;;;;22.27;100.00;100086.19;105970;1250;61368;-74
2023/08/10 07:58:47;;;;;;;2.70;1.20;;;;;;;22.31;100.00;100086.27;105961;1253;61264;-75
2023/08/10 08:01:14;;;;;;;2.80;1.90;;;;;;;22.36;100.00;100084.66;105935;1253;73672;-74
2023/08/10 08:03:41;;;;;;;7.20;1.80;;;;;;;22.46;100.00;100087.85;105999;1250;71374;-74
2023/08/10 08:06:08;;;;;;;2.00;1.40;;;;;;;22.57;100.00;100085.73;106008;1250;72653;-74
2023/08/10 08:08:35;;;;;;;3.30;1.40;;;;;;;22.70;100.00;100083.36;105977;1250;61292;-75
2023/08/10 08:11:03;;;;;;;8.40;1.70;;;;;;;22.82;100.00;100079.76;105956;1249;61340;-75
2023/08/10 08:13:30;;;;;;;4.90;1.50;;;;;;;22.91;100.00;100080.44;105944;1249;74568;-75
2023/08/10 08:15:57;;;;;;;13.30;1.70;;;;;;;22.99;100.00;100078.80;105920;1251;71106;-75
2023/08/10 08:18:44;;;;;;;7.30;1.40;;;;;;;23.05;100.00;100078.69;105989;1253;74590;-75
2023/08/10 08:21:12;;;;;;;3.80;1.30;;;;;;;23.12;100.00;100080.52;105955;1250;61310;-75
2023/08/10 08:23:39;;;;;;;4.00;1.30;;;;;;;23.18;100.00;100070.92;106052;1249;61807;-74
2023/08/10 08:26:05;;;;;;;1.80;1.30;;;;;;;23.24;100.00;100061.80;106014;1253;73777;-76
2023/08/10 08:28:32;;;;;;;7.70;1.70;;;;;;;23.31;100.00;100058.75;105985;1250;71049;-75
2023/08/10 08:31:00;;;;;;;4.10;1.30;;;;;;;23.42;100.00;100063.66;105921;1251;72615;-74
2023/08/10 08:33:27;;;;;;;4.40;1.70;;;;;;;23.52;100.00;100064.47;105978;1249;61270;-76
2023/08/10 08:35:54;;;;;;;2.40;1.30;;;;;;;23.60;100.00;100064.92;105955;1253;61230;-76
2023/08/10 08:38:21;;;;;;;4.10;1.50;;;;;;;23.65;100.00;100062.84;105988;1250;74378;-74
2023/08/10 08:40:48;;;;;;;7.20;1.80;;;;;;;23.69;100.00;100059.85;105959;1252;71006;-75
2023/08/10 08:43:15;;;;;;;3.40;1.30;;;;;;;23.77;100.00;100065.88;105993;1249;72752;-75
2023/08/10 08:45:42;;;;;;;2.40;1.50;;;;;;;23.85;100.00;100064.36;106036;1250;61265;-75
2023/08/10 08:48:10;;;;;;;6.10;1.20;;;;;;;23.93;100.00;100066.59;106047;1253;61365;-75
2023/08/10 08:50:37;;;;;;;1.30;1.20;;;;;;;24.03;100.00;100068.25;105981;1251;73109;-74
2023/08/10 08:53:04;;;;;;;3.30;1.20;;;;;;;24.15;100.00;100063.52;105978;1251;71045;-75
2023/08/10 08:55:31;;;;;;;3.00;1.50;;;;;;;24.24;100.00;100060.39;105995;1249;72694;-75
2023/08/10 08:57:58;;;;;;;1.40;1.00;;;;;;;24.30;100.00;100057.25;105932;1250;61661;-75
2023/08/10 09:00:25;;;;;;;6.50;1.50;;;;;;;24.35;100.00;100053.77;106176;1249;61365;-75
2023/08/10 09:02:52;;;;;;;3.40;1.10;;;;;;;24.43;100.00;100054.49;105969;1250;74563;-75
2023/08/10 09:05:19;;;;;;;2.20;1.50;;;;;;;24.51;100.00;100054.83;106066;1250;71033;-75
2023/08/10 09:07:45;;;;;;;9.90;1.20;;;;;;;24.53;100.00;100052.27;105919;1251;72972;-75
2023/08/10 09:10:13;;;;;;;1.90;1.30;;;;;;;24.53;100.00;100057.82;105983;1251;61324;-76
2023/08/10 09:12:40;;;;;;;6.20;1.50;;;;;;;24.54;100.00;100057.63;105978;1253;61179;-76
2023/08/10 09:15:13;;;;;;;2.20;1.30;;;;;;;24.52;100.00;100053.66;106061;1251;74730;-74
2023/08/10 09:17:46;;;;;;;4.40;1.20;;;;;;;24.52;100.00;100051.87;105998;1251;71057;-76
2023/08/10 09:20:27;;;;;;;2.90;1.50;;;;;;;24.50;100.00;100048.23;105990;1253;71118;-74
2023/08/10 09:22:56;;;;;;;2.70;1.30;;;;;;;24.51;100.00;100048.85;105977;1251;61267;-74
2023/08/10 09:25:23;;;;;;;5.80;1.50;;;;;;;24.55;100.00;100045.67;106003;1253;61349;-74
2023/08/10 09:27:50;;;;;;;3.10;1.50;;;;;;;24.61;100.00;100044.23;105918;1254;74729;-74
2023/08/10 09:30:18;;;;;;;2.20;1.40;;;;;;;24.70;100.00;100041.51;106015;1252;62275;-75
2023/08/10 09:32:44;;;;;;;8.10;1.60;;;;;;;24.83;100.00;100035.05;105940;1250;72472;-76
2023/08/10 09:35:15;;;;;;;2.10;1.30;;;;;;;24.96;100.00;100033.04;105938;1250;61257;-75
2023/08/10 09:37:43;;;;;;;3.80;1.50;;;;;;;25.10;100.00;100034.88;106059;1254;61401;-75
2023/08/10 09:40:14;;;;;;;1.80;1.40;;;;;;;25.16;100.00;100031.13;105970;1254;74931;-76
2023/08/10 09:42:40;;;;;;;2.20;1.30;;;;;;;25.20;100.00;100035.08;106181;1256;69857;-77
2023/08/10 09:45:12;;;;;;;1.30;1.20;;;;;;;25.24;100.00;100033.13;106274;1250;72694;-75
2023/08/10 09:47:40;;;;;;;2.10;1.20;;;;;;;25.25;100.00;100036.80;106220;1251;61378;-74
2023/08/10 09:50:14;;;;;;;3.50;1.40;;;;;;;25.21;100.00;100038.55;105938;1251;61425;-74
2023/08/10 09:52:42;;;;;;;3.70;1.20;;;;;;;25.21;100.00;100040.91;105916;1253;74379;-74
2023/08/10 09:55:10;;;;;;;2.90;1.40;;;;;;;25.26;100.00;100037.66;105937;1251;70931;-75
2023/08/10 09:57:44;;;;;;;3.50;1.20;;;;;;;25.28;100.00;100036.91;105914;1250;72560;-75
2023/08/10 10:00:18;;;;;;;7.50;1.50;;;;;;;25.28;100.00;100037.85;105933;1250;61317;-74
2023/08/10 10:02:45;;;;;;;2.30;1.20;;;;;;;25.26;100.00;100031.85;105983;1251;61225;-74
2023/08/10 10:05:12;;;;;;;1.90;1.50;;;;;;;25.24;100.00;100034.17;105980;1250;74390;-74
2023/08/10 10:07:56;;;;;;;2.00;1.30;;;;;;;25.21;100.00;100034.39;105864;1254;70960;-74
2023/08/10 10:10:24;;;;;;;5.30;1.30;;;;;;;25.19;100.00;100032.62;106054;1254;72557;-75
2023/08/10 10:12:51;;;;;;;1.60;1.20;;;;;;;25.18;100.00;100032.00;105860;1250;61324;-75
2023/08/10 10:15:18;;;;;;;2.30;1.10;;;;;;;25.17;100.00;100031.15;106075;1251;61352;-76
2023/08/10 10:17:50;;;;;;;4.00;1.40;;;;;;;25.16;100.00;100028.19;106394;1254;74657;-76
2023/08/10 10:20:17;;;;;;;5.70;1.20;;;;;;;25.16;100.00;100027.64;106388;1251;70786;-76
2023/08/10 10:22:44;;;;;;;1.20;1.10;;;;;;;25.17;100.00;100024.55;106078;1256;61190;-76
2023/08/10 10:25:15;;;;;;;4.20;1.00;;;;;;;25.21;100.00;100024.15;106027;1251;61311;-76
2023/08/10 10:27:41;;;;;;;4.10;1.30;;;;;;;25.28;100.00;100021.80;106010;1251;61266;-76
2023/08/10 10:30:15;;;;;;;1.40;1.10;;;;;;;25.35;100.00;100019.42;105863;1251;74638;-75
2023/08/10 10:32:46;;;;;;;8.40;1.50;;;;;;;25.39;100.00;100023.41;105886;1255;61256;-75
2023/08/10 10:35:21;;;;;;;3.90;1.70;;;;;;;25.43;100.00;100023.27;105686;1251;72521;-75
2023/08/10 10:37:57;;;;;;;2.10;1.20;;;;;;;25.46;100.00;100024.91;105912;1251;61278;-75
2023/08/10 10:40:25;;;;;;;2.50;1.20;;;;;;;25.47;100.00;100023.16;105885;1251;61157;-76
2023/08/10 10:43:01;;;;;;;6.90;1.10;;;;;;;25.47;100.00;100018.19;105901;1253;74455;-75
2023/08/10 10:45:28;;;;;;;3.50;1.30;;;;;;;25.42;100.00;100011.09;105918;1253;71001;-75
2023/08/10 10:47:55;;;;;;;2.20;1.10;;;;;;;25.39;100.00;100005.08;105833;1250;72596;-74
2023/08/10 10:50:29;;;;;;;2.80;1.30;;;;;;;25.38;100.00;100001.40;105809;1251;61253;-75
2023/08/10 10:52:57;;;;;;;1.10;1.00;;;;;;;25.38;100.00;100001.89;105883;1251;61394;-75
2023/08/10 10:55:40;;;;;;;3.00;1.20;;;;;;;25.41;100.00;100003.07;106114;1256;74660;-74
2023/08/10 10:58:11;;;;;;;7.90;1.20;;;;;;;25.44;100.00;100004.97;105926;1251;70828;-75
2023/08/10 11:00:38;;;;;;;1.50;1.20;;;;;;;25.47;100.00;100005.26;105917;1251;74647;-75
2023/08/10 11:03:06;;;;;;;9.00;1.40;;;;;;;25.51;100.00;100002.05;105847;1251;61366;-76
2023/08/10 11:05:33;;;;;;;4.00;1.20;;;;;;;25.52;100.00;99997.23;105904;1250;61236;-77
2023/08/10 11:08:03;;;;;;;1.30;1.20;;;;;;;25.60;100.00;99997.05;106177;1251;75082;-75
2023/08/10 11:10:31;;;;;;;1.40;1.30;;;;;;;25.69;100.00;99995.21;105988;1251;71067;-76
2023/08/10 11:12:58;;;;;;;1.10;1.00;;;;;;;25.78;100.00;99990.23;105976;1256;72531;-76